createdAt,value
2022-11-21T00:02:12.318Z,13.65
2022-11-21T00:05:14.009Z,12.88
2022-11-21T00:08:20.202Z,13.73
2022-11-21T00:11:21.865Z,13.82
2022-11-21T00:14:23.517Z,13.38
2022-11-21T00:17:25.145Z,13.13
2022-11-21T00:20:26.825Z,13.23
2022-11-21T00:23:29.210Z,13.07
2022-11-21T00:26:30.856Z,13.40
2022-11-21T00:29:32.502Z,12.55
2022-11-21T00:32:34.128Z,13.50
2022-11-21T00:35:35.741Z,13.15
2022-11-21T00:38:37.563Z,12.70
2022-11-21T00:41:39.173Z,12.95
2022-11-21T00:44:40.788Z,12.20
2022-11-21T00:47:42.393Z,13.67
2022-11-21T00:50:44.045Z,13.85
2022-11-21T00:53:45.784Z,13.65
2022-11-21T00:56:47.424Z,13.98
2022-11-21T00:59:49.057Z,13.20
2022-11-21T01:02:50.678Z,12.48
2022-11-21T01:05:52.313Z,13.50
2022-11-21T01:08:53.935Z,11.77
2022-11-21T01:11:56.329Z,11.88
2022-11-21T01:14:58.014Z,12.13
2022-11-21T01:17:59.625Z,11.43
2022-11-21T01:21:09.171Z,11.15
2022-11-21T01:24:13.963Z,10.38
2022-11-21T01:27:15.584Z,10.82
2022-11-21T01:30:17.517Z,10.90
2022-11-21T01:33:19.165Z,10.85
2022-11-21T01:36:22.716Z,9.95
2022-11-21T01:39:24.423Z,11.60
2022-11-21T01:42:26.086Z,11.27
2022-11-21T01:45:48.362Z,10.88
2022-11-21T01:49:08.235Z,12.05
2022-11-21T01:52:23.490Z,11.77
2022-11-21T01:55:25.106Z,12.07
2022-11-21T01:58:26.732Z,11.35
2022-11-21T02:01:28.595Z,11.97
2022-11-21T02:04:31.446Z,11.55
2022-11-21T02:07:34.866Z,12.85
2022-11-21T02:10:36.598Z,12.57
2022-11-21T02:13:38.245Z,11.25
2022-11-21T02:16:40.033Z,12.77
2022-11-21T02:19:53.841Z,12.50
2022-11-21T02:23:16.332Z,10.88
2022-11-21T02:26:17.990Z,10.45
2022-11-21T02:29:19.653Z,10.32
2022-11-21T02:32:25.700Z,10.30
2022-11-21T02:35:27.325Z,10.80
2022-11-21T02:38:37.909Z,10.23
2022-11-21T02:41:43.292Z,11.00
2022-11-21T02:45:21.418Z,10.82
2022-11-21T02:48:23.024Z,10.57
2022-11-21T02:51:24.658Z,10.88
2022-11-21T02:54:26.686Z,10.02
2022-11-21T02:57:28.511Z,10.52
2022-11-21T03:00:30.129Z,9.90
2022-11-21T03:03:31.786Z,10.77
2022-11-21T03:06:33.420Z,9.25
2022-11-21T03:09:35.061Z,9.43
2022-11-21T03:12:37.560Z,10.40
2022-11-21T03:15:39.157Z,9.55
2022-11-21T03:18:40.765Z,9.52
2022-11-21T03:21:42.432Z,8.88
2022-11-21T03:24:44.090Z,9.57
2022-11-21T03:27:45.722Z,9.07
2022-11-21T03:30:47.350Z,9.23
2022-11-21T03:33:49.042Z,8.67
2022-11-21T03:36:51.176Z,9.00
2022-11-21T03:39:52.844Z,8.40
2022-11-21T03:42:54.436Z,9.37
2022-11-21T03:45:56.134Z,8.43
2022-11-21T03:48:57.940Z,8.95
2022-11-21T03:51:59.751Z,8.15
2022-11-21T03:55:01.381Z,8.52
2022-11-21T03:58:02.980Z,8.57
2022-11-21T04:01:05.563Z,8.52
2022-11-21T04:04:07.248Z,7.70
2022-11-21T04:07:08.926Z,7.45
2022-11-21T04:10:10.577Z,7.88
2022-11-21T04:13:12.197Z,8.27
2022-11-21T04:16:13.848Z,8.15
2022-11-21T04:19:15.433Z,9.93
2022-11-21T04:22:17.113Z,7.18
2022-11-21T04:25:18.768Z,7.72
2022-11-21T04:28:20.517Z,7.70
2022-11-21T04:31:22.166Z,6.63
2022-11-21T04:34:23.840Z,6.20
2022-11-21T04:37:25.450Z,7.15
2022-11-21T04:40:27.095Z,6.20
2022-11-21T04:43:28.764Z,5.80
2022-11-21T04:46:30.358Z,6.63
2022-11-21T04:49:31.974Z,6.47
2022-11-21T04:52:33.801Z,6.13
2022-11-21T04:55:35.448Z,5.72
2022-11-21T04:58:37.171Z,6.40
2022-11-21T05:01:38.882Z,6.05
2022-11-21T05:04:40.576Z,5.40
2022-11-21T05:07:42.227Z,5.70
2022-11-21T05:11:02.781Z,5.25
2022-11-21T05:14:04.436Z,5.50
2022-11-21T05:17:06.098Z,4.80
2022-11-21T05:20:08.354Z,5.22
2022-11-21T05:23:09.974Z,5.47
2022-11-21T05:26:11.625Z,5.95
2022-11-21T05:29:13.309Z,4.65
2022-11-21T05:32:14.977Z,4.70
2022-11-21T05:35:16.724Z,4.70
2022-11-21T05:38:18.296Z,4.53
2022-11-21T05:41:19.923Z,4.65
2022-11-21T05:44:21.576Z,4.20
2022-11-21T05:47:23.232Z,3.70
2022-11-21T05:50:24.927Z,4.97
2022-11-21T05:53:26.592Z,3.75
2022-11-21T05:56:28.287Z,4.85
2022-11-21T05:59:29.876Z,4.22
2022-11-21T06:02:49.946Z,3.85
2022-11-21T06:05:51.613Z,3.97
2022-11-21T06:08:53.310Z,3.22
2022-11-21T06:11:54.924Z,3.15
2022-11-21T06:14:56.560Z,3.60
2022-11-21T06:18:00.234Z,3.28
2022-11-21T06:21:07.939Z,3.70
2022-11-21T06:24:09.829Z,3.25
2022-11-21T06:27:11.488Z,4.45
2022-11-21T06:30:16.474Z,15.43
2022-11-21T06:33:20.856Z,11.55
2022-11-21T06:36:22.571Z,4.00
2022-11-21T06:39:24.241Z,4.13
2022-11-21T06:42:25.868Z,4.38
2022-11-21T06:45:27.673Z,3.80
2022-11-21T06:48:29.375Z,4.22
2022-11-21T06:51:31.318Z,3.85
2022-11-21T06:54:33.427Z,4.30
2022-11-21T06:57:35.219Z,3.95
2022-11-21T07:00:36.905Z,4.20
2022-11-21T07:03:38.587Z,4.00
2022-11-21T07:06:40.305Z,2.70
2022-11-21T07:09:44.795Z,3.45
2022-11-21T07:13:04.935Z,2.80
2022-11-21T07:16:08.082Z,3.63
2022-11-21T07:19:09.689Z,4.07
2022-11-21T07:22:11.305Z,4.50
2022-11-21T07:25:13.177Z,3.45
2022-11-21T07:28:14.831Z,3.75
2022-11-21T07:31:16.782Z,3.92
2022-11-21T07:34:18.391Z,2.83
2022-11-21T07:37:20.052Z,3.17
2022-11-21T07:40:21.727Z,3.35
2022-11-21T07:43:23.366Z,2.70
2022-11-21T07:46:25.049Z,3.20
2022-11-21T07:49:27.011Z,3.22
2022-11-21T07:52:30.410Z,3.97
2022-11-21T07:55:39.122Z,4.28
2022-11-21T07:58:42.217Z,4.10
2022-11-21T08:01:45.580Z,4.32
2022-11-21T08:04:48.070Z,4.60
2022-11-21T08:07:49.737Z,4.20
2022-11-21T08:10:51.590Z,5.13
2022-11-21T08:13:53.465Z,4.78
2022-11-21T08:16:55.102Z,3.43
2022-11-21T08:19:59.040Z,3.47
2022-11-21T08:23:00.703Z,3.33
2022-11-21T08:26:02.319Z,3.38
2022-11-21T08:29:04.061Z,3.15
2022-11-21T08:32:05.675Z,3.50
2022-11-21T08:35:07.707Z,2.83
2022-11-21T08:38:09.391Z,3.07
2022-11-21T08:41:31.142Z,3.33
2022-11-21T08:44:33.457Z,2.90
2022-11-21T08:47:35.295Z,3.20
2022-11-21T08:50:37.054Z,3.08
2022-11-21T08:53:38.692Z,3.80
2022-11-21T08:56:40.309Z,3.08
2022-11-21T08:59:42.998Z,3.65
2022-11-21T09:02:44.923Z,3.42
2022-11-21T09:05:46.609Z,3.55
2022-11-21T09:08:48.361Z,3.67
2022-11-21T09:11:50.108Z,3.58
2022-11-21T09:15:10.359Z,3.40
2022-11-21T09:18:12.140Z,3.38
2022-11-21T09:21:17.366Z,3.37
2022-11-21T09:24:19.307Z,3.38
2022-11-21T09:27:20.964Z,3.33
2022-11-21T09:30:22.830Z,3.88
2022-11-21T09:33:24.629Z,3.80
2022-11-21T09:36:26.744Z,3.58
2022-11-21T09:39:28.693Z,3.70
2022-11-21T09:42:57.086Z,3.40
2022-11-21T09:46:17.748Z,3.30
2022-11-21T09:49:19.451Z,3.75
2022-11-21T09:52:21.913Z,3.10
2022-11-21T09:55:35.755Z,3.80
2022-11-21T09:58:40.753Z,4.00
2022-11-21T10:01:42.359Z,4.30
2022-11-21T10:04:44.674Z,4.40
2022-11-21T10:07:47.314Z,4.50
2022-11-21T10:10:55.294Z,5.33
2022-11-21T10:14:05.632Z,3.92
2022-11-21T10:17:48.958Z,3.65
2022-11-21T10:21:02.650Z,2.88
2022-11-21T10:24:19.483Z,3.63
2022-11-21T10:27:52.229Z,2.85
2022-11-21T10:30:53.917Z,3.03
2022-11-21T10:33:55.538Z,3.30
2022-11-21T10:37:37.269Z,2.90
2022-11-21T10:40:46.002Z,3.78
2022-11-21T10:44:12.175Z,3.40
2022-11-21T10:47:31.072Z,3.92
2022-11-21T10:50:51.213Z,4.50
2022-11-21T10:54:30.967Z,4.03
2022-11-21T10:57:37.030Z,3.38
2022-11-21T11:00:38.746Z,3.50
2022-11-21T11:03:40.464Z,3.72
2022-11-21T11:06:43.440Z,3.60
2022-11-21T11:09:47.668Z,3.92
2022-11-21T11:13:38.323Z,4.75
2022-11-21T11:16:30.375Z,5.00
2022-11-21T11:19:39.779Z,4.60
2022-11-21T11:22:41.894Z,4.60
2022-11-21T11:26:14.963Z,4.90
2022-11-21T11:29:16.555Z,4.38
2022-11-21T11:32:21.494Z,3.70
2022-11-21T11:35:24.016Z,4.20
2022-11-21T11:38:26.358Z,4.45
2022-11-21T11:42:04.860Z,4.80
2022-11-21T11:45:27.971Z,4.70
2022-11-21T11:48:29.685Z,4.67
2022-11-21T11:51:35.472Z,4.68
2022-11-21T11:54:49.949Z,4.20
2022-11-21T11:57:53.090Z,5.00
2022-11-21T12:01:18.626Z,4.80
2022-11-21T12:04:21.532Z,5.30
2022-11-21T12:08:38.779Z,5.63
2022-11-21T12:11:21.097Z,5.07
2022-11-21T12:14:45.159Z,5.40
2022-11-21T12:18:08.391Z,6.00
2022-11-21T12:21:16.312Z,6.05
2022-11-21T12:24:21.095Z,5.68
2022-11-21T12:27:31.472Z,5.50
2022-11-21T12:30:50.823Z,5.25
2022-11-21T12:34:22.275Z,5.45
2022-11-21T12:37:43.961Z,4.68
2022-11-21T12:41:32.282Z,5.07
2022-11-21T12:44:52.245Z,4.93
2022-11-21T12:48:37.626Z,4.95
2022-11-21T12:52:17.183Z,4.68
2022-11-21T12:55:24.853Z,4.55
2022-11-21T12:58:36.169Z,4.80
2022-11-21T13:01:56.835Z,4.68
2022-11-21T13:04:59.374Z,4.47
2022-11-21T13:08:11.922Z,4.80
2022-11-21T13:11:39.437Z,5.13
2022-11-21T13:15:01.585Z,5.20
2022-11-21T13:18:15.321Z,5.50
2022-11-21T13:21:54.462Z,5.03
2022-11-21T13:24:56.713Z,4.73
2022-11-21T13:28:13.432Z,4.72
2022-11-21T13:31:29.291Z,6.00
2022-11-21T13:34:38.285Z,6.13
2022-11-21T13:37:55.387Z,5.10
2022-11-21T13:41:15.697Z,5.63
2022-11-21T13:44:32.799Z,5.13
2022-11-21T13:47:41.118Z,4.97
2022-11-21T13:50:55.306Z,5.18
2022-11-21T13:54:04.327Z,5.45
2022-11-21T13:57:12.058Z,5.95
2022-11-21T14:00:40.094Z,5.97
2022-11-21T14:03:53.865Z,5.60
2022-11-21T14:06:55.601Z,6.18
2022-11-21T14:10:01.859Z,5.93
2022-11-21T14:13:03.513Z,5.77
2022-11-21T14:16:08.218Z,6.00
2022-11-21T14:19:14.299Z,5.25
2022-11-21T14:22:45.963Z,5.95
2022-11-21T14:25:59.366Z,5.70
2022-11-21T14:29:40.015Z,5.45
2022-11-21T14:32:41.740Z,5.43
2022-11-21T14:35:43.352Z,5.82
2022-11-21T14:39:35.246Z,5.90
2022-11-21T14:42:23.005Z,5.40
2022-11-21T14:45:25.346Z,5.82
2022-11-21T14:48:30.111Z,5.82
2022-11-21T14:51:31.720Z,6.17
2022-11-21T14:54:35.025Z,5.88
2022-11-21T14:57:38.798Z,5.45
2022-11-21T15:04:03.183Z,5.77
2022-11-21T15:07:05.195Z,6.03
2022-11-21T15:16:53.255Z,7.40
2022-11-21T15:23:28.483Z,7.30
2022-11-21T15:26:31.761Z,7.47
2022-11-21T15:29:33.506Z,7.43
2022-11-21T15:32:35.207Z,7.00
2022-11-21T15:35:58.084Z,6.68
2022-11-21T15:38:59.830Z,6.60
2022-11-21T15:42:32.313Z,6.53
2022-11-21T15:45:34.149Z,6.45
2022-11-21T15:48:35.840Z,6.47
2022-11-21T15:52:06.180Z,6.07
2022-11-21T15:55:12.117Z,6.53
2022-11-21T15:57:13.408Z,7.03
2022-11-21T15:57:14.858Z,7.57
2022-11-21T15:58:16.341Z,5.75
2022-11-21T16:01:23.329Z,6.00
2022-11-21T16:04:26.129Z,6.35
2022-11-21T16:07:28.130Z,5.97
2022-11-21T16:10:29.807Z,7.15
2022-11-21T16:13:31.837Z,6.97
2022-11-21T16:16:41.438Z,6.20
2022-11-21T16:19:45.700Z,5.97
2022-11-21T16:22:48.095Z,7.25
2022-11-21T16:25:55.702Z,6.30
2022-11-21T16:28:57.994Z,7.90
2022-11-21T16:31:59.696Z,7.38
2022-11-21T16:35:01.360Z,6.90
2022-11-21T16:38:02.992Z,6.10
2022-11-21T16:41:05.428Z,6.88
2022-11-21T16:44:11.995Z,6.15
2022-11-21T16:47:13.996Z,6.50
2022-11-21T16:50:15.706Z,6.50
2022-11-21T16:53:17.434Z,6.60
2022-11-21T16:56:19.109Z,6.43
2022-11-21T16:59:20.798Z,6.27
2022-11-21T17:02:22.438Z,6.55
2022-11-21T17:05:24.123Z,6.30
2022-11-21T17:08:27.621Z,6.07
2022-11-21T17:11:31.273Z,6.72
2022-11-21T17:14:33.001Z,6.97
2022-11-21T17:17:35.092Z,6.43
2022-11-21T17:20:36.726Z,6.43
2022-11-21T17:23:39.937Z,6.57
2022-11-21T17:26:41.556Z,7.65
2022-11-21T17:29:43.254Z,7.60
2022-11-21T17:32:44.842Z,7.80
2022-11-21T17:35:46.470Z,7.18
2022-11-21T17:38:48.311Z,7.18
2022-11-21T17:41:50.024Z,7.90
2022-11-21T17:44:51.690Z,7.43
2022-11-21T17:47:53.589Z,7.63
2022-11-21T17:51:05.806Z,7.82
2022-11-21T17:54:11.228Z,7.82
2022-11-21T17:57:12.927Z,7.32
2022-11-21T18:00:15.148Z,7.43
2022-11-21T18:03:16.769Z,7.47
2022-11-21T18:06:18.405Z,7.47
2022-11-21T18:09:19.979Z,8.05
2022-11-21T18:12:21.966Z,8.15
2022-11-21T18:15:23.596Z,8.68
2022-11-21T18:18:25.284Z,8.25
2022-11-21T18:21:28.705Z,7.80
2022-11-21T18:24:30.501Z,8.43
2022-11-21T18:27:32.313Z,7.95
2022-11-21T18:30:33.933Z,9.13
2022-11-21T18:33:36.006Z,8.77
2022-11-21T18:36:37.623Z,8.70
2022-11-21T18:39:39.322Z,8.27
2022-11-21T18:42:41.463Z,8.32
2022-11-21T18:45:43.196Z,8.67
2022-11-21T18:49:02.423Z,9.02
2022-11-21T18:52:06.502Z,7.72
2022-11-21T18:55:08.316Z,7.85
2022-11-21T18:58:09.936Z,8.03
2022-11-21T19:01:18.844Z,6.93
2022-11-21T19:04:20.534Z,6.88
2022-11-21T19:07:22.247Z,7.80
2022-11-21T19:13:45.969Z,8.60
2022-11-21T19:16:47.647Z,7.97
2022-11-21T19:19:49.621Z,8.30
2022-11-21T19:22:52.505Z,7.95
2022-11-21T19:26:02.202Z,7.65
2022-11-21T19:29:03.826Z,7.43
2022-11-21T19:32:05.414Z,7.17
2022-11-21T19:35:07.610Z,7.40
2022-11-21T19:38:09.237Z,8.95
2022-11-21T19:41:18.256Z,8.75
2022-11-21T19:44:19.910Z,8.38
2022-11-21T19:47:21.710Z,8.30
2022-11-21T19:50:23.375Z,8.05
2022-11-21T19:53:25.597Z,9.20
2022-11-21T19:56:27.308Z,8.52
2022-11-21T19:59:31.522Z,8.57
2022-11-21T20:02:33.466Z,7.68
2022-11-21T20:05:35.262Z,8.00
2022-11-21T20:08:36.937Z,8.57
2022-11-21T20:11:39.522Z,8.32
2022-11-21T20:14:41.143Z,9.03
2022-11-21T20:17:42.820Z,8.23
2022-11-21T20:20:44.418Z,8.68
2022-11-21T20:23:46.412Z,8.38
2022-11-21T20:26:48.094Z,9.48
2022-11-21T20:29:49.750Z,10.23
2022-11-21T20:32:51.387Z,8.85
2022-11-21T20:35:53.052Z,11.73
2022-11-21T20:38:58.315Z,11.65
2022-11-21T20:42:00.107Z,11.60
2022-11-21T20:48:23.610Z,15.27
2022-11-21T20:54:46.891Z,15.70
2022-11-21T20:57:48.548Z,14.80
2022-11-21T21:00:50.185Z,15.52
2022-11-21T21:03:54.666Z,15.25
2022-11-21T21:06:56.265Z,14.73
2022-11-21T21:09:59.531Z,14.52
2022-11-21T21:13:01.197Z,14.93
2022-11-21T21:16:07.094Z,14.57
2022-11-21T21:19:08.736Z,17.40
2022-11-21T21:22:10.373Z,16.70
2022-11-21T21:25:12.024Z,15.88
2022-11-21T21:28:13.628Z,16.60
2022-11-21T21:31:17.058Z,17.92
2022-11-21T21:34:19.751Z,19.35
2022-11-21T21:37:21.374Z,17.10
2022-11-21T21:40:23.000Z,17.27
2022-11-21T21:43:24.628Z,17.67
2022-11-21T21:46:27.248Z,17.05
2022-11-21T21:49:28.988Z,16.92
2022-11-21T21:52:30.630Z,17.20
2022-11-21T21:55:32.232Z,17.30
2022-11-21T21:58:35.856Z,18.47
2022-11-21T22:01:37.543Z,21.10
2022-11-21T22:04:39.221Z,25.13
2022-11-21T22:07:40.954Z,23.97
2022-11-21T22:10:42.578Z,22.98
2022-11-21T22:13:45.329Z,23.27
2022-11-21T22:16:47.005Z,22.92
2022-11-21T22:19:48.660Z,21.65
2022-11-21T22:22:50.237Z,22.58
2022-11-21T22:25:58.057Z,21.73
2022-11-21T22:28:59.697Z,22.63
2022-11-21T22:32:01.381Z,21.20
2022-11-21T22:35:03.103Z,21.42
2022-11-21T22:38:04.768Z,20.67
2022-11-21T22:41:15.316Z,20.10
2022-11-21T22:44:17.057Z,20.17
2022-11-21T22:47:18.704Z,19.08
2022-11-21T22:50:20.392Z,18.40
2022-11-21T22:53:22.069Z,18.95
2022-11-21T22:56:24.022Z,16.85
2022-11-21T22:59:25.622Z,18.13
2022-11-21T23:02:27.249Z,18.60
2022-11-21T23:05:28.828Z,16.25
2022-11-21T23:08:30.677Z,17.25
2022-11-21T23:11:37.748Z,15.15
2022-11-21T23:14:40.953Z,16.23
2022-11-21T23:17:42.574Z,15.50
2022-11-21T23:20:44.288Z,16.07
2022-11-21T23:23:45.939Z,15.38
2022-11-21T23:26:47.549Z,17.52
2022-11-21T23:29:49.184Z,14.57
2022-11-21T23:32:50.864Z,15.65
2022-11-21T23:35:52.497Z,14.05
2022-11-21T23:38:54.176Z,13.35
2022-11-21T23:41:55.795Z,13.60
2022-11-21T23:44:57.491Z,14.38
2022-11-21T23:47:59.183Z,14.10
2022-11-21T23:51:00.842Z,14.70
2022-11-21T23:54:02.499Z,13.50
2022-11-21T23:57:04.165Z,15.10
